CDT,Max TemperatureF,Mean TemperatureF,Min TemperatureF,Max Dew PointF,MeanDew PointF,Min DewpointF,Max Humidity, Mean Humidity, Min Humidity, Max Sea Level PressureIn, Mean Sea Level PressureIn, Min Sea Level PressureIn, Max VisibilityMiles, Mean VisibilityMiles, Min VisibilityMiles, Max Wind SpeedMPH, Mean Wind SpeedMPH, Max Gust SpeedMPH,PrecipitationIn, CloudCover, Events, WindDirDegrees
2013-10-1,79,63,46,53,46,34,86,54,21,30.01,29.86,29.72,10,10,10,21,9,26,0.00,0,,273
2013-10-2,81,61,40,60,45,34,89,55,21,30.07,29.97,29.85,10,10,6,23,9,30,0.00,2,,141
2013-10-3,80,70,59,67,62,56,100,73,45,29.89,29.83,29.75,10,7,0,17,10,21,0.50,6,Fog-Rain-Thunderstorm,107
2013-10-4,73,66,59,69,63,59,100,87,73,29.92,29.84,29.72,10,6,0,22,9,29,0.55,8,Fog-Rain-Thunderstorm,74
2013-10-5,67,57,46,68,47,36,89,68,47,29.89,29.81,29.75,10,9,0,18,10,23,0.01,4,Fog-Rain,220
2013-10-6,51,47,43,48,43,37,93,82,71,29.89,29.78,29.73,10,10,4,20,9,24,0.02,8,Rain,280
2013-10-7,69,55,41,47,44,40,96,71,45,30.03,29.97,29.89,10,10,5,15,7,18,0.00,0,,279
2013-10-8,77,59,40,47,44,40,100,66,31,30.03,29.99,29.93,10,10,10,26,13,36,0.00,0,,179
2013-10-9,76,61,46,51,47,44,100,68,35,30.10,30.06,30.01,10,10,10,23,11,26,0.00,0,,160
2013-10-10,77,60,42,51,46,42,93,63,33,30.08,30.00,29.90,10,10,10,23,10,30,0.00,0,,156
2013-10-11,73,63,52,61,55,50,96,77,57,29.90,29.79,29.68,10,10,9,31,17,41,T,2,Rain,158
2013-10-12,64,51,37,49,37,29,80,54,27,30.25,30.02,29.82,10,10,10,29,13,36,0.00,0,,266
2013-10-13,62,47,31,36,31,29,85,57,29,30.46,30.39,30.27,10,10,8,14,4,17,0.00,0,,315
2013-10-14,61,47,32,46,36,31,92,64,35,30.40,30.19,29.90,10,10,4,24,14,32,0.51,3,Rain,128
2013-10-15,54,50,46,52,47,42,100,93,86,29.92,29.79,29.73,10,7,2,24,16,31,0.22,8,Rain-Thunderstorm,213
2013-10-16,47,40,33,45,42,33,100,91,82,29.99,29.95,29.87,10,9,4,18,10,23,0.01,7,Rain,305
2013-10-17,58,45,31,43,37,32,100,72,43,29.95,29.88,29.81,10,10,9,22,8,26,T,3,,261
2013-10-18,52,44,36,39,34,27,100,70,39,30.03,29.96,29.92,10,10,8,21,11,24,T,5,Rain,294
2013-10-19,53,40,26,40,33,25,92,74,56,29.90,29.82,29.74,10,10,4,26,10,33,0.02,4,Rain,271
2013-10-20,58,43,27,41,34,25,92,72,51,29.94,29.78,29.66,10,10,8,29,13,36,T,7,Rain,248
2013-10-21,44,35,25,34,27,22,92,71,49,30.04,30.00,29.94,10,10,10,22,9,26,T,5,,296
2013-10-22,45,38,30,31,27,25,92,73,53,30.08,30.02,29.97,10,10,10,17,8,21,0.00,8,,357
2013-10-23,41,33,24,34,27,21,88,74,59,30.13,30.08,30.04,10,10,5,20,10,24,T,8,Snow,299
2013-10-24,46,36,25,28,25,20,85,67,49,30.38,30.28,30.14,10,10,10,22,10,28,T,5,,313
2013-10-25,55,38,21,34,28,21,96,69,41,30.39,30.20,29.91,10,10,10,33,15,41,0.00,1,,229
2013-10-26,49,38,27,35,29,24,85,64,42,30.15,30.06,29.89,10,10,10,26,15,35,0.00,0,,300
2013-10-27,62,43,23,35,29,20,92,64,36,30.10,29.97,29.84,10,10,10,20,9,25,0.00,0,,200
2013-10-28,46,40,34,32,30,29,89,74,58,30.38,30.29,30.05,10,10,9,24,13,29,0.00,2,,60
2013-10-29,57,47,37,46,37,29,93,74,54,30.34,30.17,30.05,10,10,7,23,12,30,T,6,Rain,111
2013-10-30,65,57,48,56,52,42,100,84,67,30.04,29.86,29.65,10,4,0,24,9,31,0.02,7,Fog-Rain,154
2013-10-31,55,47,38,55,43,36,100,91,82,29.65,29.56,29.46,10,7,0,20,12,25,T,8,Fog-Rain,287